You are not logged in, Click here to log in
天津濱海國際機場TSN / ZBTJ 中國天津市东丽区机场大道
ICAO: ZBTJ Country: 中國天津市东丽区机场大道
Latitude: 39.1304 Longitude: 117.359
Total Arrivals: 4 Total Departures: 4
Latest Arrival: FS63 (ZUUU-ZBTJ)CHU. CHUHAO Latest Departure: HU7205 (ZBTJ-ZSPD)CHU. CHUHAO
Scenery:
METAR : ZBTJ 090830Z 23002MPS 2200 HZ NSC 02/M04 Q1018 NOSIG

天津濱海國際機場TSN

You are accessing this site from IP address 100.26.176.182. Virtual Airline. CMS by phpVMS.Website designed by Zumeweb and edited by Theo Bearman.
There is 0 User(s) Online: | and 3 Guest(s) Online.
All information on this site is for fight simulation purposes only. This site is for flight logging for pilots of Virtual Airline&模擬飛行論壇 FlySim only.